createdAt,value
2019-01-31T00:00:01.221Z,34.20
2019-01-31T00:03:09.252Z,33.60
2019-01-31T00:06:12.360Z,37.50
2019-01-31T00:09:24.961Z,34.17
2019-01-31T00:12:54.124Z,34.20
2019-01-31T00:16:21.185Z,35.07
2019-01-31T00:19:43.584Z,33.70
2019-01-31T00:23:00.866Z,35.57
2019-01-31T00:26:21.139Z,36.13
2019-01-31T00:29:34.620Z,34.70
2019-01-31T00:32:57.544Z,35.80
2019-01-31T00:36:39.280Z,31.50
2019-01-31T00:39:58.073Z,30.97
2019-01-31T00:43:09.643Z,30.57
2019-01-31T00:46:18.904Z,33.83
2019-01-31T00:49:57.132Z,29.80
2019-01-31T00:53:18.516Z,29.97
2019-01-31T00:56:49.603Z,28.53
2019-01-31T01:00:28.312Z,32.70
2019-01-31T01:03:59.515Z,32.03
2019-01-31T01:07:11.140Z,27.63
2019-01-31T01:10:39.711Z,31.83
2019-01-31T01:13:40.297Z,30.37
2019-01-31T01:16:44.075Z,31.60
2019-01-31T01:19:51.372Z,30.27
2019-01-31T01:23:00.587Z,30.33
2019-01-31T01:26:13.752Z,28.23
2019-01-31T01:29:21.955Z,32.20
2019-01-31T01:32:36.477Z,30.60
2019-01-31T01:35:52.488Z,29.73
2019-01-31T01:39:19.233Z,30.97
2019-01-31T01:42:39.831Z,30.57
2019-01-31T01:45:56.530Z,28.33
2019-01-31T01:48:54.758Z,28.40
2019-01-31T01:51:51.766Z,26.03
2019-01-31T01:55:12.606Z,24.70
2019-01-31T01:58:25.708Z,27.20
2019-01-31T02:02:02.954Z,25.93
2019-01-31T02:05:15.158Z,25.13
2019-01-31T02:08:41.895Z,24.90
2019-01-31T02:11:58.199Z,22.83
2019-01-31T02:15:28.811Z,24.27
2019-01-31T02:18:29.434Z,23.97
2019-01-31T02:21:56.883Z,22.03
2019-01-31T02:24:58.767Z,25.30
2019-01-31T02:28:18.820Z,24.43
2019-01-31T02:31:47.842Z,22.47
2019-01-31T02:35:09.607Z,26.73
2019-01-31T02:38:11.526Z,22.23
2019-01-31T02:41:31.122Z,22.70
2019-01-31T02:44:30.862Z,23.80
2019-01-31T02:47:55.438Z,24.47
2019-01-31T02:51:19.565Z,23.43
2019-01-31T02:54:16.209Z,26.10
2019-01-31T02:57:35.873Z,24.50
2019-01-31T03:00:35.206Z,26.33
2019-01-31T03:04:06.120Z,25.17
2019-01-31T03:07:25.563Z,25.40
2019-01-31T03:10:31.450Z,25.43
2019-01-31T03:13:23.755Z,25.40
2019-01-31T03:17:04.652Z,24.60
2019-01-31T03:20:20.540Z,26.57
2019-01-31T03:23:46.594Z,25.17
2019-01-31T03:27:12.511Z,23.50
2019-01-31T03:30:31.461Z,24.97
2019-01-31T03:33:53.123Z,24.43
2019-01-31T03:37:19.345Z,24.57
2019-01-31T03:40:49.240Z,25.20
2019-01-31T03:44:05.515Z,25.17
2019-01-31T03:47:15.748Z,26.97
2019-01-31T03:50:27.690Z,24.40
2019-01-31T03:53:48.808Z,24.90
2019-01-31T03:57:01.108Z,26.40
2019-01-31T04:00:11.580Z,24.70
2019-01-31T04:03:17.167Z,26.00
2019-01-31T04:06:34.676Z,22.73
2019-01-31T04:09:22.422Z,21.40
2019-01-31T04:12:10.805Z,21.10
2019-01-31T04:14:58.707Z,20.70
2019-01-31T04:17:47.275Z,21.50
2019-01-31T04:20:35.533Z,19.87
2019-01-31T04:23:23.967Z,19.53
2019-01-31T04:26:12.157Z,18.00
2019-01-31T04:28:59.771Z,18.13
2019-01-31T04:31:47.839Z,17.43
2019-01-31T04:34:36.450Z,17.60
2019-01-31T04:37:24.449Z,18.07
2019-01-31T04:40:12.710Z,19.80
2019-01-31T04:43:01.115Z,19.53
2019-01-31T04:45:49.683Z,16.37
2019-01-31T04:48:38.465Z,19.33
2019-01-31T04:51:27.256Z,19.87
2019-01-31T04:54:15.306Z,19.23
2019-01-31T04:57:03.552Z,18.23
2019-01-31T04:59:51.571Z,20.17
2019-01-31T05:02:40.239Z,20.13
2019-01-31T05:05:28.644Z,21.17
2019-01-31T05:08:17.059Z,21.10
2019-01-31T05:11:05.977Z,21.33
2019-01-31T05:13:54.202Z,22.27
2019-01-31T05:16:42.548Z,20.83
2019-01-31T05:19:30.641Z,21.47
2019-01-31T05:22:18.904Z,21.67
2019-01-31T05:25:07.932Z,19.77
2019-01-31T05:27:56.297Z,19.70
2019-01-31T05:30:44.325Z,21.60
2019-01-31T05:33:32.754Z,21.07
2019-01-31T05:36:21.209Z,20.30
2019-01-31T05:39:09.833Z,20.50
2019-01-31T05:41:58.365Z,21.60
2019-01-31T05:44:46.560Z,20.97
2019-01-31T05:47:34.580Z,21.63
2019-01-31T05:50:22.267Z,24.13
2019-01-31T05:53:10.301Z,24.43
2019-01-31T05:55:58.885Z,24.80
2019-01-31T05:58:47.323Z,24.77
2019-01-31T06:01:35.668Z,23.80
2019-01-31T06:04:24.152Z,24.30
2019-01-31T06:07:12.965Z,21.83
2019-01-31T06:10:00.729Z,22.80
2019-01-31T06:12:49.123Z,23.30
2019-01-31T06:15:37.753Z,21.33
2019-01-31T06:18:25.490Z,23.40
2019-01-31T06:21:13.380Z,23.13
2019-01-31T06:24:01.623Z,21.73
2019-01-31T06:26:49.213Z,22.43
2019-01-31T06:29:37.400Z,22.30
2019-01-31T06:32:25.616Z,21.63
2019-01-31T06:35:15.198Z,22.07
2019-01-31T06:38:03.188Z,22.47
2019-01-31T06:40:51.828Z,21.60
2019-01-31T06:43:40.070Z,21.43
2019-01-31T06:46:28.592Z,23.40
2019-01-31T06:49:16.669Z,21.93
2019-01-31T06:52:05.035Z,22.80
2019-01-31T06:54:53.379Z,21.90
2019-01-31T06:57:40.959Z,22.00
2019-01-31T07:00:29.290Z,21.17
2019-01-31T07:03:16.924Z,20.07
2019-01-31T07:06:05.547Z,21.13
2019-01-31T07:08:54.262Z,20.23
2019-01-31T07:11:42.526Z,20.97
2019-01-31T07:14:30.786Z,20.97
2019-01-31T07:17:19.109Z,23.20
2019-01-31T07:20:09.163Z,23.73
2019-01-31T07:22:57.434Z,22.40
2019-01-31T07:25:45.960Z,20.70
2019-01-31T07:28:34.246Z,19.23
2019-01-31T07:31:22.313Z,16.83
2019-01-31T07:34:10.731Z,17.07
2019-01-31T07:36:59.508Z,16.50
2019-01-31T07:39:47.814Z,16.13
2019-01-31T07:42:36.355Z,15.07
2019-01-31T07:45:26.807Z,15.57
2019-01-31T07:48:15.579Z,15.33
2019-01-31T07:51:03.506Z,15.50
2019-01-31T07:53:51.734Z,16.87
2019-01-31T07:56:40.286Z,17.13
2019-01-31T07:59:28.547Z,16.87
2019-01-31T08:02:17.170Z,17.33
2019-01-31T08:05:07.262Z,15.87
2019-01-31T08:07:55.723Z,15.30
2019-01-31T08:10:43.550Z,14.33
2019-01-31T08:13:31.644Z,14.60
2019-01-31T08:16:19.325Z,14.40
2019-01-31T08:19:07.406Z,15.20
2019-01-31T08:21:55.942Z,12.97
2019-01-31T08:24:44.067Z,14.87
2019-01-31T08:27:32.450Z,14.33
2019-01-31T08:30:22.135Z,15.37
2019-01-31T08:33:10.486Z,13.57
2019-01-31T08:35:58.825Z,15.80
2019-01-31T08:38:47.120Z,14.47
2019-01-31T08:41:35.367Z,15.83
2019-01-31T08:44:23.516Z,13.60
2019-01-31T08:47:11.127Z,13.87
2019-01-31T08:49:59.446Z,14.27
2019-01-31T08:52:47.950Z,14.27
2019-01-31T08:55:36.203Z,13.70
2019-01-31T08:58:24.645Z,13.70
2019-01-31T09:01:12.490Z,15.00
2019-01-31T09:04:00.912Z,14.50
2019-01-31T09:06:48.494Z,13.00
2019-01-31T09:09:36.766Z,15.30
2019-01-31T09:12:25.027Z,12.43
2019-01-31T09:15:14.983Z,13.20
2019-01-31T09:18:03.394Z,12.13
2019-01-31T09:21:17.491Z,10.97
2019-01-31T09:24:27.102Z,7.60
2019-01-31T09:27:55.563Z,5.80
2019-01-31T09:31:25.325Z,5.00
2019-01-31T09:34:23.653Z,3.90
2019-01-31T09:37:37.593Z,3.17
2019-01-31T09:40:59.244Z,3.60
2019-01-31T09:44:10.611Z,3.57
2019-01-31T09:47:42.571Z,3.20
2019-01-31T09:50:50.948Z,3.30
2019-01-31T09:53:57.811Z,3.47
2019-01-31T09:57:42.663Z,3.27
2019-01-31T10:01:29.895Z,2.87
2019-01-31T10:04:39.175Z,4.00
2019-01-31T10:07:57.539Z,3.40
2019-01-31T10:11:35.871Z,3.63
2019-01-31T10:14:46.697Z,3.97
2019-01-31T10:18:20.218Z,3.83
2019-01-31T10:21:47.214Z,4.43
2019-01-31T10:25:14.910Z,4.53
2019-01-31T10:28:41.511Z,4.00
2019-01-31T10:31:56.302Z,5.70
2019-01-31T10:35:11.255Z,5.67
2019-01-31T10:38:28.228Z,5.40
2019-01-31T10:41:58.491Z,4.40
2019-01-31T10:45:00.213Z,3.83
2019-01-31T10:48:54.408Z,4.53
2019-01-31T10:52:13.759Z,4.67
2019-01-31T10:55:38.796Z,4.50
2019-01-31T10:59:00.317Z,4.83
2019-01-31T11:02:24.343Z,4.97
2019-01-31T11:05:25.112Z,4.80
2019-01-31T11:08:57.128Z,6.03
2019-01-31T11:12:14.067Z,6.27
2019-01-31T11:15:18.784Z,8.37
2019-01-31T11:18:47.192Z,7.33
2019-01-31T11:22:02.418Z,7.80
2019-01-31T11:25:23.304Z,6.70
2019-01-31T11:28:47.270Z,6.90
2019-01-31T11:32:32.523Z,7.77
2019-01-31T11:35:42.336Z,7.73
2019-01-31T11:38:36.367Z,8.10
2019-01-31T11:41:49.872Z,7.87
2019-01-31T11:45:12.917Z,6.70
2019-01-31T11:48:28.340Z,7.23
2019-01-31T11:52:01.081Z,7.50
2019-01-31T11:55:10.256Z,7.13
2019-01-31T11:58:38.939Z,6.60
2019-01-31T12:01:27.810Z,7.00
2019-01-31T12:04:17.647Z,7.70
2019-01-31T12:07:05.969Z,6.60
2019-01-31T12:09:53.504Z,7.73
2019-01-31T12:12:43.773Z,7.57
2019-01-31T12:15:31.292Z,8.20
2019-01-31T12:18:19.596Z,8.00
2019-01-31T12:21:07.844Z,8.00
2019-01-31T12:23:56.447Z,9.10
2019-01-31T12:26:44.693Z,9.40
2019-01-31T12:29:32.918Z,9.10
2019-01-31T12:32:21.212Z,10.10
2019-01-31T12:35:09.524Z,10.57
2019-01-31T12:37:57.648Z,10.40
2019-01-31T12:40:46.160Z,10.43
2019-01-31T12:43:35.596Z,11.73
2019-01-31T12:46:24.447Z,12.80
2019-01-31T12:49:12.848Z,11.23
2019-01-31T12:52:03.901Z,12.87
2019-01-31T12:54:50.809Z,13.13
2019-01-31T12:57:39.247Z,14.33
2019-01-31T13:00:28.648Z,13.87
2019-01-31T13:03:16.623Z,13.27
2019-01-31T13:06:05.400Z,15.23
2019-01-31T13:08:53.560Z,13.80
2019-01-31T13:11:42.400Z,13.00
2019-01-31T13:14:30.442Z,14.30
2019-01-31T13:17:17.988Z,14.50
2019-01-31T13:20:10.387Z,15.30
2019-01-31T13:22:58.844Z,14.60
2019-01-31T13:25:46.493Z,14.30
2019-01-31T13:28:34.376Z,13.57
2019-01-31T13:31:22.749Z,16.27
2019-01-31T13:34:11.006Z,14.50
2019-01-31T13:36:59.451Z,13.97
2019-01-31T13:39:47.996Z,13.77
2019-01-31T13:42:36.435Z,14.27
2019-01-31T13:45:32.879Z,14.60
2019-01-31T13:48:20.576Z,13.67
2019-01-31T13:51:09.517Z,14.50
2019-01-31T13:53:58.452Z,13.40
2019-01-31T13:56:46.857Z,13.70
2019-01-31T13:59:35.057Z,14.50
2019-01-31T14:02:23.278Z,13.63
2019-01-31T14:05:12.269Z,12.97
2019-01-31T14:08:00.600Z,13.47
2019-01-31T14:10:48.888Z,12.83
2019-01-31T14:13:37.403Z,14.30
2019-01-31T14:16:25.665Z,14.97
2019-01-31T14:19:13.626Z,14.17
2019-01-31T14:22:02.146Z,14.23
2019-01-31T14:24:49.932Z,14.10
2019-01-31T14:27:38.532Z,13.40
2019-01-31T14:30:32.246Z,13.40
2019-01-31T14:33:25.219Z,14.90
2019-01-31T14:36:13.495Z,13.47
2019-01-31T14:39:01.892Z,13.73
2019-01-31T14:41:50.373Z,14.17
2019-01-31T14:44:37.891Z,14.30
2019-01-31T14:47:25.647Z,14.40
2019-01-31T14:50:17.722Z,14.50
2019-01-31T14:53:06.428Z,13.80
2019-01-31T14:55:55.542Z,14.93
2019-01-31T14:58:44.023Z,15.97
2019-01-31T15:01:31.648Z,14.90
2019-01-31T15:04:20.023Z,15.57
2019-01-31T15:07:08.723Z,14.03
2019-01-31T15:09:56.803Z,16.80
2019-01-31T15:12:45.015Z,16.80
2019-01-31T15:15:32.568Z,14.83
2019-01-31T15:18:20.679Z,16.40
2019-01-31T15:21:09.045Z,17.00
2019-01-31T15:23:59.536Z,18.17
2019-01-31T15:26:47.167Z,16.30
2019-01-31T15:29:34.839Z,18.17
2019-01-31T15:32:24.199Z,17.03
2019-01-31T15:35:12.920Z,16.17
2019-01-31T15:38:01.427Z,15.60
2019-01-31T15:40:49.808Z,15.97
2019-01-31T15:43:38.374Z,17.93
2019-01-31T15:46:26.613Z,16.83
2019-01-31T15:49:15.139Z,17.97
2019-01-31T15:52:03.402Z,18.33
2019-01-31T15:54:51.283Z,18.07
2019-01-31T15:57:39.980Z,18.67
2019-01-31T16:00:41.360Z,19.10
2019-01-31T16:03:29.399Z,18.60
2019-01-31T16:06:17.929Z,19.20
2019-01-31T16:09:08.447Z,20.67
2019-01-31T16:11:59.461Z,21.00
2019-01-31T16:14:54.516Z,19.70
2019-01-31T16:17:35.675Z,21.40
2019-01-31T16:20:23.994Z,19.50
2019-01-31T16:23:13.234Z,20.80
2019-01-31T16:26:01.233Z,21.40
2019-01-31T16:28:49.623Z,21.73
2019-01-31T16:31:37.688Z,22.10
2019-01-31T16:34:26.067Z,21.37
2019-01-31T16:37:14.602Z,22.80
2019-01-31T16:40:02.929Z,22.27
2019-01-31T16:42:51.018Z,23.60
2019-01-31T16:45:39.539Z,23.20
2019-01-31T16:48:27.594Z,21.43
2019-01-31T16:51:15.755Z,21.83
2019-01-31T16:54:04.018Z,22.73
2019-01-31T16:56:52.324Z,20.10
2019-01-31T16:59:40.592Z,19.93
2019-01-31T17:02:28.555Z,22.60
2019-01-31T17:05:20.232Z,21.03
2019-01-31T17:08:09.079Z,22.00
2019-01-31T17:10:57.662Z,21.77
2019-01-31T17:13:46.455Z,20.50
2019-01-31T17:16:34.791Z,23.90
2019-01-31T17:19:23.731Z,22.33
2019-01-31T17:22:11.366Z,22.83
2019-01-31T17:24:59.794Z,20.40
2019-01-31T17:27:48.103Z,21.80
2019-01-31T17:30:36.466Z,22.90
2019-01-31T17:33:25.418Z,22.00
2019-01-31T17:36:13.387Z,23.43
2019-01-31T17:39:01.363Z,24.60
2019-01-31T17:41:49.151Z,23.60
2019-01-31T17:44:38.284Z,24.00
2019-01-31T17:47:26.672Z,22.20
2019-01-31T17:50:15.049Z,23.53
2019-01-31T17:53:03.283Z,24.83
2019-01-31T17:55:52.163Z,23.20
2019-01-31T17:58:40.273Z,23.10
2019-01-31T18:01:28.499Z,23.80
2019-01-31T18:04:17.023Z,23.90
2019-01-31T18:07:05.571Z,22.80
2019-01-31T18:09:53.906Z,22.43
2019-01-31T18:12:41.831Z,22.27
2019-01-31T18:15:41.210Z,21.70
2019-01-31T18:18:20.163Z,21.00
2019-01-31T18:21:08.167Z,23.33
2019-01-31T18:23:56.294Z,23.10
2019-01-31T18:26:44.453Z,23.30
2019-01-31T18:29:32.756Z,21.87
2019-01-31T18:32:20.609Z,22.20
2019-01-31T18:35:09.594Z,21.47
2019-01-31T18:37:57.393Z,21.77
2019-01-31T18:40:45.466Z,22.90
2019-01-31T18:43:33.745Z,20.20
2019-01-31T18:46:22.055Z,20.90
2019-01-31T18:49:11.156Z,19.63
2019-01-31T18:51:59.339Z,20.80
2019-01-31T18:54:47.590Z,21.00
2019-01-31T18:57:35.495Z,20.27
2019-01-31T19:00:26.198Z,18.47
2019-01-31T19:03:14.976Z,18.53
2019-01-31T19:06:02.820Z,19.07
2019-01-31T19:08:50.879Z,19.47
2019-01-31T19:11:38.894Z,19.33
2019-01-31T19:14:27.398Z,19.03
2019-01-31T19:17:15.046Z,18.33
2019-01-31T19:20:03.231Z,16.80
2019-01-31T19:22:52.319Z,18.43
2019-01-31T19:25:40.007Z,16.93
2019-01-31T19:28:28.055Z,18.40
2019-01-31T19:31:16.322Z,17.97
2019-01-31T19:34:05.274Z,17.10
2019-01-31T19:36:53.599Z,16.87
2019-01-31T19:39:41.655Z,16.73
2019-01-31T19:42:30.207Z,17.27
2019-01-31T19:45:28.255Z,17.13
2019-01-31T19:48:16.212Z,16.47
2019-01-31T19:51:05.580Z,15.20
2019-01-31T19:53:54.308Z,18.20
2019-01-31T19:56:42.802Z,17.60
2019-01-31T19:59:32.144Z,16.40
2019-01-31T20:02:20.787Z,16.77
2019-01-31T20:05:10.031Z,15.90
2019-01-31T20:07:59.360Z,16.87
2019-01-31T20:10:48.877Z,16.20
2019-01-31T20:13:38.254Z,16.20
2019-01-31T20:16:29.383Z,16.40
2019-01-31T20:19:17.071Z,17.97
2019-01-31T20:22:06.236Z,16.30
2019-01-31T20:24:54.799Z,17.33
2019-01-31T20:27:43.762Z,17.67
2019-01-31T20:30:32.575Z,16.10
2019-01-31T20:33:20.383Z,17.03
2019-01-31T20:36:08.602Z,16.03
2019-01-31T20:38:57.322Z,16.43
2019-01-31T20:41:53.899Z,15.37
2019-01-31T20:44:35.083Z,14.73
2019-01-31T20:47:23.834Z,15.27
2019-01-31T20:50:18.300Z,16.00
2019-01-31T20:53:06.501Z,16.07
2019-01-31T20:55:54.263Z,16.10
2019-01-31T20:58:44.709Z,16.23
2019-01-31T21:01:31.465Z,17.10
2019-01-31T21:04:20.336Z,17.40
2019-01-31T21:07:08.795Z,16.60
2019-01-31T21:09:59.674Z,17.70
2019-01-31T21:12:47.948Z,17.50
2019-01-31T21:15:36.302Z,18.60
2019-01-31T21:18:24.859Z,17.40
2019-01-31T21:21:12.747Z,17.70
2019-01-31T21:24:01.026Z,17.93
2019-01-31T21:26:51.275Z,16.67
2019-01-31T21:29:39.935Z,16.60
2019-01-31T21:32:28.497Z,16.27
2019-01-31T21:35:17.215Z,17.50
2019-01-31T21:38:05.405Z,16.73
2019-01-31T21:40:54.391Z,17.27
2019-01-31T21:43:42.735Z,15.90
2019-01-31T21:46:31.391Z,16.43
2019-01-31T21:49:19.854Z,14.37
2019-01-31T21:52:08.736Z,15.20
2019-01-31T21:54:56.703Z,16.13
2019-01-31T21:57:45.299Z,14.70
2019-01-31T22:00:33.758Z,16.80
2019-01-31T22:03:21.990Z,15.17
2019-01-31T22:06:21.970Z,13.67
2019-01-31T22:09:00.450Z,15.40
2019-01-31T22:11:49.086Z,16.30
2019-01-31T22:14:37.544Z,14.90
2019-01-31T22:17:26.061Z,15.20
2019-01-31T22:20:13.959Z,15.47
2019-01-31T22:23:02.319Z,13.30
2019-01-31T22:25:50.654Z,13.00
2019-01-31T22:28:38.342Z,14.00
2019-01-31T22:31:26.510Z,12.90
2019-01-31T22:34:14.911Z,13.03
2019-01-31T22:37:03.566Z,13.37
2019-01-31T22:39:51.853Z,13.10
2019-01-31T22:42:40.222Z,13.17
2019-01-31T22:45:28.331Z,13.90
2019-01-31T22:48:16.439Z,14.53
2019-01-31T22:51:04.259Z,14.90
2019-01-31T22:53:52.826Z,14.10
2019-01-31T22:56:40.690Z,15.10
2019-01-31T22:59:28.723Z,16.80
2019-01-31T23:02:16.618Z,16.70
2019-01-31T23:05:06.010Z,15.70
2019-01-31T23:07:54.247Z,16.03
2019-01-31T23:10:42.547Z,17.53
2019-01-31T23:13:30.823Z,17.47
2019-01-31T23:16:18.820Z,16.63
2019-01-31T23:19:07.470Z,16.97
2019-01-31T23:21:55.822Z,16.33
2019-01-31T23:24:43.947Z,16.37
2019-01-31T23:27:32.531Z,18.40
2019-01-31T23:30:20.870Z,17.07
2019-01-31T23:33:09.125Z,16.30
2019-01-31T23:35:57.319Z,16.87
2019-01-31T23:38:45.415Z,17.57
2019-01-31T23:41:33.766Z,16.40
2019-01-31T23:44:22.191Z,17.50
2019-01-31T23:47:10.440Z,18.60
2019-01-31T23:49:59.261Z,16.27
2019-01-31T23:52:47.707Z,19.20
2019-01-31T23:55:36.319Z,17.33
2019-01-31T23:58:24.534Z,15.77
